createdAt,value
2019-02-06T00:00:51.771Z,46.30
2019-02-06T00:03:22.445Z,55.13
2019-02-06T00:05:51.888Z,42.10
2019-02-06T00:08:21.341Z,39.40
2019-02-06T00:10:50.732Z,46.07
2019-02-06T00:13:20.134Z,35.40
2019-02-06T00:15:49.928Z,36.83
2019-02-06T00:18:19.399Z,40.03
2019-02-06T00:20:49.035Z,38.07
2019-02-06T00:23:18.390Z,45.87
2019-02-06T00:25:48.421Z,32.90
2019-02-06T00:28:17.883Z,41.67
2019-02-06T00:30:48.663Z,37.57
2019-02-06T00:33:18.071Z,37.20
2019-02-06T00:35:47.437Z,36.23
2019-02-06T00:38:16.791Z,36.47
2019-02-06T00:40:46.160Z,30.67
2019-02-06T00:43:15.590Z,40.50
2019-02-06T00:45:45.865Z,39.37
2019-02-06T00:48:15.155Z,34.40
2019-02-06T00:50:44.817Z,41.37
2019-02-06T00:53:14.171Z,37.07
2019-02-06T00:55:43.528Z,34.27
2019-02-06T00:58:12.891Z,31.77
2019-02-06T01:00:42.767Z,33.97
2019-02-06T01:03:12.228Z,40.63
2019-02-06T01:05:41.586Z,32.67
2019-02-06T01:08:11.188Z,40.97
2019-02-06T01:10:40.562Z,35.77
2019-02-06T01:13:09.935Z,37.43
2019-02-06T01:15:39.613Z,32.33
2019-02-06T01:18:08.989Z,33.47
2019-02-06T01:20:40.100Z,30.93
2019-02-06T01:23:09.461Z,27.30
2019-02-06T01:25:38.839Z,31.40
2019-02-06T01:28:08.748Z,29.63
2019-02-06T01:30:49.310Z,29.33
2019-02-06T01:33:18.672Z,30.00
2019-02-06T01:35:49.990Z,33.70
2019-02-06T01:38:19.058Z,32.23
2019-02-06T01:40:48.452Z,32.23
2019-02-06T01:43:18.215Z,30.67
2019-02-06T01:45:47.922Z,30.33
2019-02-06T01:48:17.288Z,30.63
2019-02-06T01:50:46.631Z,28.40
2019-02-06T01:53:16.003Z,21.37
2019-02-06T01:55:45.365Z,33.57
2019-02-06T01:58:14.764Z,29.13
2019-02-06T02:00:44.103Z,35.10
2019-02-06T02:03:13.450Z,30.17
2019-02-06T02:05:42.821Z,27.63
2019-02-06T02:08:12.418Z,29.90
2019-02-06T02:10:41.825Z,25.83
2019-02-06T02:13:11.175Z,29.97
2019-02-06T02:15:41.724Z,30.03
2019-02-06T02:18:11.415Z,28.57
2019-02-06T02:20:40.815Z,27.70
2019-02-06T02:23:10.159Z,29.60
2019-02-06T02:25:39.507Z,22.87
2019-02-06T02:28:08.900Z,36.80
2019-02-06T02:30:45.349Z,29.67
2019-02-06T02:33:14.742Z,29.30
2019-02-06T02:35:44.210Z,20.53
2019-02-06T02:38:13.565Z,30.63
2019-02-06T02:40:42.968Z,27.30
2019-02-06T02:43:12.721Z,27.07
2019-02-06T02:45:42.090Z,29.33
2019-02-06T02:48:11.439Z,25.10
2019-02-06T02:50:40.900Z,28.97
2019-02-06T02:53:10.385Z,26.13
2019-02-06T02:55:39.738Z,27.40
2019-02-06T02:58:09.361Z,31.33
2019-02-06T03:01:06.947Z,28.77
2019-02-06T03:03:43.172Z,26.60
2019-02-06T03:06:12.955Z,27.50
2019-02-06T03:08:42.317Z,25.03
2019-02-06T03:11:12.435Z,27.50
2019-02-06T03:13:41.784Z,25.37
2019-02-06T03:16:11.151Z,25.17
2019-02-06T03:18:40.497Z,26.37
2019-02-06T03:21:10.149Z,25.80
2019-02-06T03:23:39.735Z,26.53
2019-02-06T03:26:09.092Z,23.03
2019-02-06T03:28:38.512Z,26.83
2019-02-06T03:31:07.862Z,25.43
2019-02-06T03:33:37.228Z,25.23
2019-02-06T03:36:06.934Z,27.50
2019-02-06T03:38:36.285Z,27.73
2019-02-06T03:41:06.067Z,24.33
2019-02-06T03:43:35.458Z,27.10
2019-02-06T03:46:05.225Z,31.40
2019-02-06T03:48:34.577Z,28.33
2019-02-06T03:51:04.378Z,27.07
2019-02-06T03:53:33.731Z,25.50
2019-02-06T03:56:03.351Z,23.77
2019-02-06T03:58:32.716Z,23.10
2019-02-06T04:01:02.259Z,23.63
2019-02-06T04:03:32.177Z,25.67
2019-02-06T04:06:02.017Z,23.77
2019-02-06T04:08:31.434Z,21.77
2019-02-06T04:11:00.836Z,24.70
2019-02-06T04:13:31.039Z,25.20
2019-02-06T04:16:00.414Z,26.80
2019-02-06T04:18:29.784Z,25.30
2019-02-06T04:20:59.350Z,23.43
2019-02-06T04:23:28.722Z,16.07
2019-02-06T04:25:58.097Z,23.00
2019-02-06T04:28:27.439Z,25.17
2019-02-06T04:30:56.816Z,22.93
2019-02-06T04:33:26.200Z,28.00
2019-02-06T04:35:55.984Z,35.97
2019-02-06T04:38:25.325Z,26.20
2019-02-06T04:40:54.710Z,28.17
2019-02-06T04:43:24.075Z,31.07
2019-02-06T04:45:53.428Z,30.77
2019-02-06T04:48:23.253Z,25.23
2019-02-06T04:50:53.004Z,24.40
2019-02-06T04:53:22.365Z,20.10
2019-02-06T04:55:51.769Z,21.63
2019-02-06T04:58:21.113Z,24.47
2019-02-06T05:00:50.394Z,27.63
2019-02-06T05:03:19.752Z,26.37
2019-02-06T05:05:49.441Z,29.43
2019-02-06T05:08:18.808Z,23.37
2019-02-06T05:10:48.153Z,28.60
2019-02-06T05:13:18.351Z,24.03
2019-02-06T05:15:47.700Z,22.97
2019-02-06T05:18:17.050Z,22.23
2019-02-06T05:20:46.363Z,22.87
2019-02-06T05:23:15.730Z,26.90
2019-02-06T05:25:45.064Z,23.43
2019-02-06T05:28:14.431Z,21.80
2019-02-06T05:30:43.800Z,34.97
2019-02-06T05:33:13.160Z,25.73
2019-02-06T05:35:42.622Z,21.30
2019-02-06T05:38:11.960Z,23.07
2019-02-06T05:40:41.232Z,19.00
2019-02-06T05:43:10.592Z,23.63
2019-02-06T05:45:39.947Z,21.23
2019-02-06T05:48:09.312Z,22.13
2019-02-06T05:50:38.674Z,24.10
2019-02-06T05:53:08.994Z,21.90
2019-02-06T05:55:38.351Z,25.80
2019-02-06T05:58:07.703Z,25.13
2019-02-06T06:00:42.089Z,26.30
2019-02-06T06:03:11.425Z,28.97
2019-02-06T06:05:40.782Z,24.90
2019-02-06T06:08:10.664Z,20.57
2019-02-06T06:10:40.043Z,23.37
2019-02-06T06:13:09.373Z,27.30
2019-02-06T06:15:38.760Z,25.20
2019-02-06T06:18:08.107Z,25.87
2019-02-06T06:20:37.459Z,23.93
2019-02-06T06:23:06.938Z,26.50
2019-02-06T06:25:36.318Z,25.80
2019-02-06T06:28:05.735Z,24.30
2019-02-06T06:30:35.022Z,25.33
2019-02-06T06:33:04.378Z,25.37
2019-02-06T06:35:33.723Z,24.60
2019-02-06T06:38:03.099Z,27.10
2019-02-06T06:40:32.470Z,26.63
2019-02-06T06:43:01.814Z,28.33
2019-02-06T06:45:31.165Z,27.13
2019-02-06T06:48:00.512Z,23.13
2019-02-06T06:50:29.873Z,26.63
2019-02-06T06:52:59.450Z,38.60
2019-02-06T06:55:30.088Z,36.03
2019-02-06T06:57:59.401Z,45.80
2019-02-06T07:00:30.236Z,27.17
2019-02-06T07:03:00.327Z,25.23
2019-02-06T07:05:32.469Z,30.83
2019-02-06T07:08:11.130Z,27.87
2019-02-06T07:10:33.479Z,36.60
2019-02-06T07:13:02.818Z,31.73
2019-02-06T07:15:34.067Z,40.27
2019-02-06T07:18:03.434Z,34.30
2019-02-06T07:20:33.281Z,48.60
2019-02-06T07:23:03.077Z,50.03
2019-02-06T07:25:32.431Z,37.33
2019-02-06T07:28:01.726Z,50.57
2019-02-06T07:30:33.214Z,37.77
2019-02-06T07:33:02.867Z,34.40
2019-02-06T07:35:32.210Z,36.30
2019-02-06T07:38:02.299Z,34.83
2019-02-06T07:40:31.689Z,31.90
2019-02-06T07:43:01.059Z,27.93
2019-02-06T07:45:30.756Z,35.60
2019-02-06T07:48:00.123Z,27.90
2019-02-06T07:50:31.540Z,27.07
2019-02-06T07:53:01.054Z,29.90
2019-02-06T07:55:30.642Z,53.37
2019-02-06T07:58:00.031Z,33.43
2019-02-06T08:00:29.444Z,28.23
2019-02-06T08:02:59.398Z,27.83
2019-02-06T08:05:28.859Z,34.00
2019-02-06T08:07:58.572Z,30.57
2019-02-06T08:10:34.865Z,36.33
2019-02-06T08:13:05.372Z,32.87
2019-02-06T08:15:34.756Z,30.70
2019-02-06T08:18:04.259Z,47.10
2019-02-06T08:20:33.916Z,34.93
2019-02-06T08:23:03.319Z,41.13
2019-02-06T08:25:32.714Z,41.47
2019-02-06T08:28:02.105Z,59.13
2019-02-06T08:30:33.807Z,35.10
2019-02-06T08:33:04.723Z,45.83
2019-02-06T08:35:34.884Z,41.27
2019-02-06T08:38:04.431Z,26.57
2019-02-06T08:40:33.822Z,34.07
2019-02-06T08:43:03.193Z,37.67
2019-02-06T08:45:32.551Z,38.40
2019-02-06T08:50:29.908Z,34.50
2019-02-06T08:52:59.567Z,88.17
2019-02-06T08:55:30.067Z,97.67
2019-02-06T08:57:59.665Z,80.30
2019-02-06T09:00:34.705Z,84.90
2019-02-06T09:03:04.756Z,51.03
2019-02-06T09:05:34.094Z,45.80
2019-02-06T09:08:03.476Z,68.83
2019-02-06T09:10:33.007Z,94.60
2019-02-06T09:13:03.780Z,68.33
2019-02-06T09:15:33.084Z,43.37
2019-02-06T09:18:02.440Z,61.23
2019-02-06T09:20:32.285Z,88.07
2019-02-06T09:23:02.141Z,86.70
2019-02-06T09:25:31.520Z,59.03
2019-02-06T09:28:00.945Z,51.90
2019-02-06T09:30:31.875Z,48.23
2019-02-06T09:33:01.483Z,86.97
2019-02-06T09:35:30.927Z,117.83
2019-02-06T09:38:00.272Z,41.47
2019-02-06T09:40:31.012Z,48.43
2019-02-06T09:43:00.848Z,56.73
2019-02-06T09:45:30.277Z,41.23
2019-02-06T09:47:59.631Z,54.57
2019-02-06T09:50:31.627Z,53.20
2019-02-06T09:53:00.912Z,27.50
2019-02-06T09:55:31.069Z,51.40
2019-02-06T09:58:00.461Z,78.70
2019-02-06T10:00:32.453Z,44.77
2019-02-06T10:03:02.216Z,43.37
2019-02-06T10:05:31.871Z,40.80
2019-02-06T10:08:01.234Z,50.97
2019-02-06T10:10:32.105Z,41.77
2019-02-06T10:13:01.481Z,66.73
2019-02-06T10:15:33.949Z,71.70
2019-02-06T10:18:03.743Z,46.67
2019-02-06T10:20:38.387Z,34.23
2019-02-06T10:23:07.907Z,29.53
2019-02-06T10:25:37.780Z,29.57
2019-02-06T10:28:07.252Z,24.60
2019-02-06T10:30:39.067Z,33.50
2019-02-06T10:33:08.427Z,31.63
2019-02-06T10:35:37.780Z,50.53
2019-02-06T10:38:07.383Z,25.50
2019-02-06T10:40:37.944Z,42.07
2019-02-06T10:43:07.328Z,21.33
2019-02-06T10:45:37.237Z,40.73
2019-02-06T10:48:06.979Z,26.57
2019-02-06T10:50:39.105Z,28.43
2019-02-06T10:53:09.271Z,18.80
2019-02-06T10:55:38.730Z,23.33
2019-02-06T10:58:08.223Z,20.83
2019-02-06T11:00:55.624Z,26.87
2019-02-06T11:03:25.051Z,23.97
2019-02-06T11:05:54.788Z,28.97
2019-02-06T11:08:24.491Z,21.67
2019-02-06T11:10:54.073Z,19.03
2019-02-06T11:13:24.131Z,17.60
2019-02-06T11:15:53.527Z,17.50
2019-02-06T11:18:23.023Z,20.97
2019-02-06T11:20:52.381Z,25.43
2019-02-06T11:23:21.809Z,19.50
2019-02-06T11:25:51.701Z,23.80
2019-02-06T11:28:21.154Z,26.47
2019-02-06T11:30:50.513Z,17.93
2019-02-06T11:33:19.913Z,19.93
2019-02-06T11:35:49.260Z,16.77
2019-02-06T11:38:18.645Z,21.10
2019-02-06T11:40:48.041Z,19.80
2019-02-06T11:43:17.500Z,21.27
2019-02-06T11:45:46.927Z,13.33
2019-02-06T11:48:16.330Z,14.47
2019-02-06T11:50:45.952Z,12.60
2019-02-06T11:53:20.763Z,16.60
2019-02-06T11:55:50.646Z,14.47
2019-02-06T11:58:20.000Z,21.00
2019-02-06T12:01:14.048Z,17.73
2019-02-06T12:03:43.439Z,29.23
2019-02-06T12:06:13.217Z,17.77
2019-02-06T12:08:42.759Z,12.40
2019-02-06T12:11:12.742Z,17.10
2019-02-06T12:13:42.564Z,14.10
2019-02-06T12:16:13.053Z,11.60
2019-02-06T12:18:42.441Z,18.80
2019-02-06T12:21:12.189Z,17.93
2019-02-06T12:23:42.103Z,15.80
2019-02-06T12:26:12.937Z,14.57
2019-02-06T12:28:42.310Z,12.73
2019-02-06T12:31:11.716Z,14.70
2019-02-06T12:33:41.110Z,12.40
2019-02-06T12:36:10.926Z,15.40
2019-02-06T12:38:53.203Z,16.40
2019-02-06T12:41:14.465Z,23.83
2019-02-06T12:43:43.869Z,34.47
2019-02-06T12:46:13.433Z,28.97
2019-02-06T12:48:42.822Z,16.07
2019-02-06T12:51:12.215Z,15.60
2019-02-06T12:53:41.880Z,21.83
2019-02-06T12:56:11.304Z,25.17
2019-02-06T12:58:40.659Z,15.63
2019-02-06T13:01:11.118Z,23.20
2019-02-06T13:03:40.504Z,37.43
2019-02-06T13:06:11.166Z,19.40
2019-02-06T13:08:41.390Z,14.13
2019-02-06T13:11:11.314Z,11.00
2019-02-06T13:13:41.000Z,14.80
2019-02-06T13:16:11.611Z,27.63
2019-02-06T13:18:40.914Z,18.07
2019-02-06T13:21:10.300Z,28.63
2019-02-06T13:23:39.971Z,16.80
2019-02-06T13:26:09.942Z,29.50
2019-02-06T13:28:39.423Z,26.53
2019-02-06T13:31:08.850Z,33.83
2019-02-06T13:33:38.230Z,24.73
2019-02-06T13:36:10.771Z,26.00
2019-02-06T13:38:40.209Z,14.63
2019-02-06T13:41:09.600Z,39.50
2019-02-06T13:43:39.036Z,39.47
2019-02-06T13:46:08.947Z,13.27
2019-02-06T13:48:39.429Z,18.47
2019-02-06T13:51:16.538Z,20.70
2019-02-06T13:53:42.485Z,24.33
2019-02-06T13:56:12.784Z,32.90
2019-02-06T13:58:42.145Z,13.87
2019-02-06T14:01:11.534Z,39.47
2019-02-06T14:03:40.946Z,40.27
2019-02-06T14:06:11.620Z,56.40
2019-02-06T14:08:41.390Z,63.03
2019-02-06T14:11:10.772Z,63.60
2019-02-06T14:13:40.218Z,38.90
2019-02-06T14:16:10.661Z,48.33
2019-02-06T14:18:40.118Z,69.30
2019-02-06T14:21:09.768Z,65.77
2019-02-06T14:24:23.083Z,65.10
2019-02-06T14:27:17.672Z,46.83
2019-02-06T14:30:39.360Z,65.83
2019-02-06T14:33:59.075Z,40.47
2019-02-06T14:36:54.164Z,44.63
2019-02-06T14:39:36.896Z,50.57
2019-02-06T14:42:47.793Z,40.37
2019-02-06T14:46:00.801Z,145.30
2019-02-06T14:49:17.388Z,154.40
2019-02-06T14:52:17.012Z,167.30
2019-02-06T14:55:21.233Z,142.43
2019-02-06T14:58:46.275Z,170.20
2019-02-06T15:02:00.271Z,257.93
2019-02-06T15:04:57.734Z,301.30
2019-02-06T15:08:06.949Z,209.67
2019-02-06T15:10:50.507Z,167.53
2019-02-06T15:14:15.414Z,73.47
2019-02-06T15:17:23.059Z,74.70
2019-02-06T15:20:48.904Z,126.67
2019-02-06T15:23:36.804Z,110.80
2019-02-06T15:26:24.536Z,88.40
2019-02-06T15:29:34.792Z,65.20
2019-02-06T15:32:30.203Z,78.17
2019-02-06T15:35:39.671Z,88.30
2019-02-06T15:38:33.829Z,101.03
2019-02-06T15:41:31.458Z,128.53
2019-02-06T15:44:25.851Z,85.03
2019-02-06T15:47:35.414Z,73.20
2019-02-06T15:50:34.570Z,115.07
2019-02-06T15:53:34.840Z,147.30
2019-02-06T15:56:52.293Z,114.67
2019-02-06T16:00:05.759Z,109.77
2019-02-06T16:02:55.266Z,92.83
2019-02-06T16:06:12.521Z,112.00
2019-02-06T16:09:17.821Z,109.10
2019-02-06T16:12:11.290Z,70.37
2019-02-06T16:14:51.864Z,96.67
2019-02-06T16:18:11.750Z,89.53
2019-02-06T16:21:21.844Z,225.93
2019-02-06T16:24:13.602Z,143.23
2019-02-06T16:27:29.652Z,86.47
2019-02-06T16:30:37.605Z,107.30
2019-02-06T16:33:48.060Z,108.43
2019-02-06T16:36:53.308Z,231.97
2019-02-06T16:40:05.209Z,111.33
2019-02-06T16:43:21.442Z,107.70
2019-02-06T16:46:33.444Z,127.00
2019-02-06T16:49:22.469Z,92.63
2019-02-06T16:52:17.034Z,95.10
2019-02-06T16:55:37.057Z,70.60
2019-02-06T16:58:29.729Z,84.20
2019-02-06T17:01:52.266Z,68.73
2019-02-06T17:04:58.677Z,185.23
2019-02-06T17:08:15.989Z,76.33
2019-02-06T17:11:17.863Z,61.10
2019-02-06T17:14:34.363Z,40.83
2019-02-06T17:17:38.566Z,36.43
2019-02-06T17:20:43.241Z,35.20
2019-02-06T17:23:46.895Z,181.50
2019-02-06T17:26:41.108Z,68.23
2019-02-06T17:29:41.080Z,52.67
2019-02-06T17:32:46.235Z,85.43
2019-02-06T17:35:27.887Z,71.50
2019-02-06T17:38:28.006Z,187.00
2019-02-06T17:41:28.149Z,131.10
2019-02-06T17:44:37.186Z,124.03
2019-02-06T17:47:51.166Z,228.03
2019-02-06T17:51:07.866Z,347.97
2019-02-06T17:53:46.488Z,79.57
2019-02-06T17:56:17.179Z,113.80
2019-02-06T17:58:46.627Z,44.67
2019-02-06T18:01:45.865Z,46.57
2019-02-06T18:04:26.942Z,41.50
2019-02-06T18:09:42.269Z,56.53
2019-02-06T18:12:11.668Z,67.87
2019-02-06T18:14:41.522Z,69.43
2019-02-06T18:17:11.112Z,81.23
2019-02-06T18:19:41.267Z,88.87
2019-02-06T18:22:11.098Z,92.47
2019-02-06T18:24:42.757Z,130.00
2019-02-06T18:27:13.547Z,113.00
2019-02-06T18:29:44.663Z,119.43
2019-02-06T18:32:15.122Z,102.73
2019-02-06T18:34:46.721Z,124.90
2019-02-06T18:37:16.223Z,82.57
2019-02-06T18:39:45.711Z,57.17
2019-02-06T18:42:15.188Z,47.90
2019-02-06T18:44:45.158Z,37.83
2019-02-06T18:47:14.592Z,41.93
2019-02-06T18:49:44.873Z,60.10
2019-02-06T18:52:20.307Z,64.43
2019-02-06T18:54:55.010Z,54.63
2019-02-06T18:57:24.881Z,58.23
2019-02-06T18:59:54.443Z,49.63
2019-02-06T19:02:23.955Z,41.67
2019-02-06T19:04:53.503Z,36.23
2019-02-06T19:07:23.839Z,35.27
2019-02-06T19:09:55.380Z,55.53
2019-02-06T19:12:26.893Z,112.57
2019-02-06T19:14:58.786Z,75.03
2019-02-06T19:17:27.418Z,83.80
2019-02-06T19:19:57.642Z,89.87
2019-02-06T19:22:27.448Z,130.43
2019-02-06T19:24:57.361Z,94.17
2019-02-06T19:27:27.911Z,80.57
2019-02-06T19:29:57.374Z,113.77
2019-02-06T19:32:27.992Z,120.23
2019-02-06T19:34:57.480Z,111.30
2019-02-06T19:37:27.282Z,95.63
2019-02-06T19:39:56.681Z,104.40
2019-02-06T19:42:26.046Z,98.40
2019-02-06T19:44:55.527Z,70.13
2019-02-06T19:47:28.607Z,79.63
2019-02-06T19:49:57.509Z,74.07
2019-02-06T19:52:28.138Z,83.47
2019-02-06T19:55:00.362Z,64.97
2019-02-06T19:57:31.510Z,48.53
2019-02-06T20:00:00.961Z,53.57
2019-02-06T20:02:30.934Z,71.50
2019-02-06T20:05:00.401Z,72.87
2019-02-06T20:07:31.189Z,68.17
2019-02-06T20:10:00.903Z,69.80
2019-02-06T20:12:30.330Z,75.03
2019-02-06T20:14:59.711Z,76.77
2019-02-06T20:17:29.437Z,85.83
2019-02-06T20:19:59.083Z,72.70
2019-02-06T20:22:28.564Z,71.10
2019-02-06T20:24:59.493Z,70.33
2019-02-06T20:27:29.176Z,93.97
2019-02-06T20:29:58.960Z,121.63
2019-02-06T20:32:28.344Z,105.87
2019-02-06T20:34:57.727Z,154.83
2019-02-06T20:37:27.202Z,107.10
2019-02-06T20:39:56.621Z,76.40
2019-02-06T20:42:26.097Z,69.37
2019-02-06T20:44:55.719Z,80.50
2019-02-06T20:47:26.686Z,67.93
2019-02-06T20:49:56.092Z,68.83
2019-02-06T20:52:27.233Z,71.73
2019-02-06T20:54:56.638Z,79.17
2019-02-06T20:57:26.094Z,71.90
2019-02-06T20:59:58.313Z,107.27
2019-02-06T21:02:29.484Z,91.63
2019-02-06T21:05:00.463Z,79.67
2019-02-06T21:07:29.978Z,78.50
2019-02-06T21:09:59.516Z,77.90
2019-02-06T21:12:28.966Z,80.50
2019-02-06T21:15:01.065Z,82.90
2019-02-06T21:17:30.616Z,74.60
2019-02-06T21:20:00.098Z,73.07
2019-02-06T21:22:30.735Z,68.70
2019-02-06T21:25:00.250Z,69.23
2019-02-06T21:27:32.318Z,65.03
2019-02-06T21:30:01.744Z,64.50
2019-02-06T21:32:31.219Z,66.03
2019-02-06T21:35:01.460Z,63.50
2019-02-06T21:37:32.401Z,64.93
2019-02-06T21:40:01.953Z,57.57
2019-02-06T21:42:31.510Z,63.57
2019-02-06T21:45:01.402Z,71.03
2019-02-06T21:47:31.972Z,61.87
2019-02-06T21:50:01.436Z,56.33
2019-02-06T21:52:30.948Z,54.17
2019-02-06T21:55:00.462Z,54.50
2019-02-06T21:57:30.304Z,56.37
2019-02-06T21:59:59.860Z,54.20
2019-02-06T22:02:31.614Z,51.57
2019-02-06T22:05:01.138Z,50.17
2019-02-06T22:07:30.936Z,52.70
2019-02-06T22:10:00.778Z,51.17
2019-02-06T22:12:32.246Z,51.23
2019-02-06T22:15:01.738Z,49.97
2019-02-06T22:17:31.605Z,42.37
2019-02-06T22:20:01.049Z,47.20
2019-02-06T22:22:30.476Z,47.03
2019-02-06T22:25:00.679Z,48.67
2019-02-06T22:27:31.738Z,45.37
2019-02-06T22:30:01.534Z,46.40
2019-02-06T22:32:30.915Z,41.70
2019-02-06T22:39:24.339Z,43.83
2019-02-06T22:41:53.794Z,41.40
2019-02-06T22:44:23.167Z,40.33
2019-02-06T22:46:54.067Z,42.90
2019-02-06T22:49:23.439Z,42.20
2019-02-06T22:51:52.861Z,39.70
2019-02-06T22:54:22.355Z,38.23
2019-02-06T22:56:51.786Z,37.10
2019-02-06T22:59:21.251Z,36.17
2019-02-06T23:01:56.723Z,36.67
2019-02-06T23:04:26.215Z,39.97
2019-02-06T23:06:55.608Z,39.17
2019-02-06T23:09:25.036Z,37.30
2019-02-06T23:11:54.393Z,42.17
2019-02-06T23:14:24.203Z,41.07
2019-02-06T23:16:53.561Z,37.67
2019-02-06T23:19:23.044Z,36.50
2019-02-06T23:21:52.417Z,38.67
2019-02-06T23:24:21.902Z,39.33
2019-02-06T23:26:51.301Z,36.53
2019-02-06T23:29:20.989Z,36.97
2019-02-06T23:31:50.396Z,35.43
2019-02-06T23:34:20.155Z,37.00
2019-02-06T23:36:49.463Z,35.70
2019-02-06T23:39:20.744Z,34.73
2019-02-06T23:41:50.057Z,34.13
2019-02-06T23:44:28.600Z,35.63
2019-02-06T23:46:50.421Z,34.63
2019-02-06T23:49:19.868Z,33.43
2019-02-06T23:51:49.228Z,35.63
2019-02-06T23:54:18.594Z,34.80
2019-02-06T23:56:47.991Z,37.97
2019-02-06T23:59:17.517Z,36.67
